TAP34F LGIR-LGAV
Flight info
| Callsign | TAP34F |
|---|---|
| Flight time | 0h 38m |
| Altitude | 22000 |
| Route | EPALO UM749 MIL L617 SOREV |
| Aircraft | A321/M-SDE3FGHIRWY/LB1 |
Departure
| Time | 2026-05-07 13:48 |
|---|---|
| Airport | Heraklion International Nikos Kazantzakis Airport (LGIR) |
Arrival
| Time | 2026-05-07 14:26 |
|---|---|
| Airport | Athens Eleftherios Venizelos International Airport (LGAV) |
| Time | Latitude | Longitude | Altitude | Speed | Heading |
|---|---|---|---|---|---|
| 2026-05-07 13:05 | 35.33806 | 25.17422 | 88 ft | 0 kts | 274° |
| 2026-05-07 13:41 | 35.33806 | 25.17419 | 85 ft | 2 kts | 274° |
| 2026-05-07 13:42 | 35.33812 | 25.17393 | 89 ft | 5 kts | 300° |
| 2026-05-07 13:42 | 35.33872 | 25.17377 | 84 ft | 8 kts | 3° |
| 2026-05-07 13:42 | 35.33913 | 25.17341 | 86 ft | 9 kts | 301° |
| 2026-05-07 13:42 | 35.33929 | 25.17261 | 84 ft | 6 kts | 275° |
| 2026-05-07 13:43 | 35.33933 | 25.17193 | 81 ft | 11 kts | 274° |
| 2026-05-07 13:43 | 35.33939 | 25.17086 | 78 ft | 15 kts | 274° |
| 2026-05-07 13:43 | 35.33947 | 25.16986 | 76 ft | 2 kts | 275° |
| 2026-05-07 13:43 | 35.33949 | 25.16952 | 75 ft | 6 kts | 276° |
| 2026-05-07 13:44 | 35.33955 | 25.16889 | 74 ft | 8 kts | 276° |
| 2026-05-07 13:44 | 35.33958 | 25.16842 | 66 ft | 8 kts | 273° |
| 2026-05-07 13:44 | 35.33965 | 25.16785 | 69 ft | 1 kts | 286° |
| 2026-05-07 13:44 | 35.33969 | 25.16770 | 71 ft | 1 kts | 292° |
| 2026-05-07 13:45 | 35.33971 | 25.16763 | 67 ft | 0 kts | 292° |
| 2026-05-07 13:45 | 35.33971 | 25.16762 | 67 ft | 0 kts | 292° |
| 2026-05-07 13:45 | 35.33977 | 25.16747 | 64 ft | 6 kts | 294° |
| 2026-05-07 13:46 | 35.34018 | 25.16667 | 64 ft | 13 kts | 316° |
| 2026-05-07 13:46 | 35.34068 | 25.16704 | 67 ft | 9 kts | 82° |
| 2026-05-07 13:46 | 35.34067 | 25.16745 | 68 ft | 0 kts | 84° |
| 2026-05-07 13:47 | 35.34067 | 25.16746 | 68 ft | 0 kts | 84° |
| 2026-05-07 13:47 | 35.34057 | 25.16860 | 70 ft | 43 kts | 95° |
| 2026-05-07 13:48 | 35.34011 | 25.17529 | 93 ft | 111 kts | 94° |
| 2026-05-07 13:48 | 35.33934 | 25.18693 | 116 ft | 160 kts | 92° |
| 2026-05-07 13:48 | 35.33844 | 25.20030 | 748 ft | 155 kts | 94° |
| 2026-05-07 13:48 | 35.33828 | 25.21328 | 1399 ft | 155 kts | 78° |
| 2026-05-07 13:49 | 35.34295 | 25.22508 | 2020 ft | 156 kts | 49° |
| 2026-05-07 13:49 | 35.35196 | 25.23249 | 2596 ft | 158 kts | 18° |
| 2026-05-07 13:49 | 35.36288 | 25.23328 | 3158 ft | 160 kts | 347° |
| 2026-05-07 13:49 | 35.37306 | 25.22693 | 3526 ft | 175 kts | 315° |
| 2026-05-07 13:50 | 35.37975 | 25.21354 | 3763 ft | 197 kts | 292° |
| 2026-05-07 13:50 | 35.38549 | 25.19734 | 4023 ft | 217 kts | 292° |
| 2026-05-07 13:50 | 35.39292 | 25.18041 | 4273 ft | 239 kts | 309° |
| 2026-05-07 13:50 | 35.40722 | 25.16826 | 4561 ft | 265 kts | 336° |
| 2026-05-07 13:51 | 35.42456 | 25.15942 | 5307 ft | 273 kts | 337° |
| 2026-05-07 13:51 | 35.44220 | 25.15048 | 6197 ft | 275 kts | 337° |
| 2026-05-07 13:51 | 35.45996 | 25.14149 | 7055 ft | 278 kts | 337° |
| 2026-05-07 13:51 | 35.47798 | 25.13232 | 7884 ft | 281 kts | 336° |
| 2026-05-07 13:52 | 35.49603 | 25.12310 | 8774 ft | 282 kts | 336° |
| 2026-05-07 13:52 | 35.51397 | 25.11391 | 9624 ft | 284 kts | 336° |
| 2026-05-07 13:52 | 35.53228 | 25.10449 | 10402 ft | 288 kts | 336° |
| 2026-05-07 13:52 | 35.55151 | 25.09461 | 10661 ft | 311 kts | 336° |
| 2026-05-07 13:53 | 35.57207 | 25.08406 | 11019 ft | 326 kts | 336° |
| 2026-05-07 13:53 | 35.59320 | 25.07321 | 11673 ft | 331 kts | 336° |
| 2026-05-07 13:53 | 35.61458 | 25.06224 | 12405 ft | 335 kts | 336° |
| 2026-05-07 13:53 | 35.63619 | 25.05116 | 13161 ft | 337 kts | 336° |
| 2026-05-07 13:54 | 35.65792 | 25.03999 | 13910 ft | 340 kts | 336° |
| 2026-05-07 13:54 | 35.67987 | 25.02870 | 14567 ft | 344 kts | 335° |
| 2026-05-07 13:54 | 35.70203 | 25.01729 | 15206 ft | 347 kts | 335° |
| 2026-05-07 13:54 | 35.72451 | 25.00576 | 15830 ft | 351 kts | 335° |
| 2026-05-07 13:55 | 35.74734 | 24.99463 | 16452 ft | 355 kts | 336° |
| 2026-05-07 13:55 | 35.77029 | 24.98387 | 17077 ft | 359 kts | 336° |
| 2026-05-07 13:55 | 35.79378 | 24.97303 | 17694 ft | 363 kts | 336° |
| 2026-05-07 13:55 | 35.81754 | 24.96210 | 18312 ft | 366 kts | 336° |
| 2026-05-07 13:56 | 35.84153 | 24.95101 | 18857 ft | 369 kts | 336° |
| 2026-05-07 13:56 | 35.86558 | 24.93980 | 19442 ft | 370 kts | 336° |
| 2026-05-07 13:56 | 35.88963 | 24.92851 | 19988 ft | 370 kts | 336° |
| 2026-05-07 13:56 | 35.91364 | 24.91718 | 20369 ft | 369 kts | 336° |
| 2026-05-07 13:57 | 35.93763 | 24.90584 | 20731 ft | 369 kts | 336° |
| 2026-05-07 13:57 | 35.96164 | 24.89448 | 21107 ft | 370 kts | 336° |
| 2026-05-07 13:57 | 35.98572 | 24.88309 | 21394 ft | 372 kts | 335° |
| 2026-05-07 13:57 | 36.00990 | 24.87164 | 21644 ft | 372 kts | 335° |
| 2026-05-07 13:58 | 36.03405 | 24.86019 | 21889 ft | 373 kts | 335° |
| 2026-05-07 13:58 | 36.05832 | 24.84869 | 22099 ft | 374 kts | 335° |
| 2026-05-07 13:58 | 36.08228 | 24.83734 | 22146 ft | 364 kts | 335° |
| 2026-05-07 13:58 | 36.10577 | 24.82623 | 22149 ft | 359 kts | 335° |
| 2026-05-07 13:59 | 36.12907 | 24.81519 | 22150 ft | 358 kts | 335° |
| 2026-05-07 13:59 | 36.15236 | 24.80415 | 22150 ft | 358 kts | 335° |
| 2026-05-07 13:59 | 36.17558 | 24.79312 | 22150 ft | 358 kts | 335° |
| 2026-05-07 13:59 | 36.19880 | 24.78206 | 22150 ft | 358 kts | 335° |
| 2026-05-07 14:00 | 36.22175 | 24.77119 | 22161 ft | 358 kts | 335° |
| 2026-05-07 14:00 | 36.24505 | 24.76013 | 22153 ft | 359 kts | 335° |
| 2026-05-07 14:00 | 36.26868 | 24.74887 | 22150 ft | 360 kts | 335° |
| 2026-05-07 14:00 | 36.29205 | 24.73774 | 22156 ft | 360 kts | 335° |
| 2026-05-07 14:01 | 36.31512 | 24.72674 | 22157 ft | 360 kts | 335° |
| 2026-05-07 14:01 | 36.33846 | 24.71560 | 22158 ft | 360 kts | 335° |
| 2026-05-07 14:01 | 36.36185 | 24.70443 | 22158 ft | 360 kts | 335° |
| 2026-05-07 14:01 | 36.38522 | 24.69328 | 22158 ft | 360 kts | 335° |
| 2026-05-07 14:02 | 36.40864 | 24.68213 | 22159 ft | 360 kts | 335° |
| 2026-05-07 14:02 | 36.43206 | 24.67097 | 22157 ft | 360 kts | 335° |
| 2026-05-07 14:02 | 36.45544 | 24.65979 | 22159 ft | 360 kts | 335° |
| 2026-05-07 14:02 | 36.47879 | 24.64861 | 22168 ft | 360 kts | 335° |
| 2026-05-07 14:03 | 36.50222 | 24.63739 | 22154 ft | 361 kts | 335° |
| 2026-05-07 14:03 | 36.52564 | 24.62615 | 22151 ft | 361 kts | 335° |
| 2026-05-07 14:03 | 36.54910 | 24.61490 | 22147 ft | 361 kts | 335° |
| 2026-05-07 14:03 | 36.57257 | 24.60363 | 22144 ft | 361 kts | 335° |
| 2026-05-07 14:04 | 36.59604 | 24.59235 | 22143 ft | 362 kts | 335° |
| 2026-05-07 14:04 | 36.61953 | 24.58105 | 22143 ft | 362 kts | 335° |
| 2026-05-07 14:04 | 36.64298 | 24.56978 | 22143 ft | 361 kts | 335° |
| 2026-05-07 14:04 | 36.66650 | 24.55848 | 22142 ft | 361 kts | 335° |
| 2026-05-07 14:05 | 36.68994 | 24.54722 | 22141 ft | 361 kts | 335° |
| 2026-05-07 14:05 | 36.71343 | 24.53590 | 22140 ft | 361 kts | 335° |
| 2026-05-07 14:05 | 36.73696 | 24.52456 | 22144 ft | 362 kts | 336° |
| 2026-05-07 14:05 | 36.76117 | 24.51565 | 22143 ft | 365 kts | 344° |
| 2026-05-07 14:06 | 36.78604 | 24.50901 | 22134 ft | 366 kts | 344° |
| 2026-05-07 14:06 | 36.81098 | 24.50235 | 22132 ft | 366 kts | 344° |
| 2026-05-07 14:06 | 36.82747 | 24.49791 | 22131 ft | 366 kts | 344° |
| 2026-05-07 14:06 | 36.85240 | 24.49115 | 22135 ft | 366 kts | 344° |
| 2026-05-07 14:07 | 36.87729 | 24.48437 | 22129 ft | 366 kts | 344° |
| 2026-05-07 14:07 | 36.91028 | 24.47539 | 22127 ft | 366 kts | 344° |
| 2026-05-07 14:07 | 36.93514 | 24.46860 | 21953 ft | 364 kts | 344° |
| 2026-05-07 14:07 | 36.95977 | 24.46189 | 21702 ft | 361 kts | 344° |
| 2026-05-07 14:08 | 36.97635 | 24.45738 | 21535 ft | 361 kts | 344° |
| 2026-05-07 14:08 | 37.00090 | 24.45070 | 21284 ft | 360 kts | 344° |
| 2026-05-07 14:08 | 37.02534 | 24.44403 | 21033 ft | 359 kts | 344° |
| 2026-05-07 14:08 | 37.04971 | 24.43735 | 20783 ft | 358 kts | 343° |
| 2026-05-07 14:09 | 37.07402 | 24.43066 | 20537 ft | 357 kts | 344° |
| 2026-05-07 14:09 | 37.09824 | 24.42402 | 20301 ft | 356 kts | 344° |
| 2026-05-07 14:09 | 37.12212 | 24.41750 | 20054 ft | 355 kts | 344° |
| 2026-05-07 14:09 | 37.14621 | 24.41094 | 19812 ft | 354 kts | 344° |
| 2026-05-07 14:10 | 37.17028 | 24.40439 | 19571 ft | 353 kts | 344° |
| 2026-05-07 14:10 | 37.19430 | 24.39824 | 19335 ft | 353 kts | 346° |
| 2026-05-07 14:10 | 37.21867 | 24.39309 | 19101 ft | 353 kts | 347° |
| 2026-05-07 14:10 | 37.24277 | 24.38864 | 18858 ft | 352 kts | 348° |
| 2026-05-07 14:11 | 37.26702 | 24.38439 | 18643 ft | 352 kts | 348° |
| 2026-05-07 14:11 | 37.29127 | 24.38015 | 18406 ft | 352 kts | 348° |
| 2026-05-07 14:11 | 37.31547 | 24.37582 | 18139 ft | 351 kts | 347° |
| 2026-05-07 14:11 | 37.33956 | 24.37137 | 17874 ft | 349 kts | 347° |
| 2026-05-07 14:12 | 37.36355 | 24.36684 | 17615 ft | 347 kts | 347° |
| 2026-05-07 14:12 | 37.38740 | 24.36229 | 16871 ft | 351 kts | 347° |
| 2026-05-07 14:12 | 37.41184 | 24.35757 | 16453 ft | 359 kts | 348° |
| 2026-05-07 14:12 | 37.43662 | 24.35278 | 16209 ft | 361 kts | 348° |
| 2026-05-07 14:13 | 37.46147 | 24.34803 | 15958 ft | 361 kts | 348° |
| 2026-05-07 14:13 | 37.48628 | 24.34329 | 15701 ft | 359 kts | 348° |
| 2026-05-07 14:13 | 37.51093 | 24.33859 | 15459 ft | 358 kts | 348° |
| 2026-05-07 14:13 | 37.53547 | 24.33393 | 14983 ft | 355 kts | 348° |
| 2026-05-07 14:14 | 37.55975 | 24.32933 | 14509 ft | 351 kts | 348° |
| 2026-05-07 14:14 | 37.58376 | 24.32478 | 14042 ft | 347 kts | 348° |
| 2026-05-07 14:14 | 37.60755 | 24.32018 | 13537 ft | 345 kts | 348° |
| 2026-05-07 14:14 | 37.63120 | 24.31556 | 13017 ft | 343 kts | 348° |
| 2026-05-07 14:15 | 37.65440 | 24.31101 | 12518 ft | 341 kts | 349° |
| 2026-05-07 14:15 | 37.67779 | 24.30644 | 12023 ft | 339 kts | 349° |
| 2026-05-07 14:15 | 37.70110 | 24.30190 | 11417 ft | 338 kts | 349° |
| 2026-05-07 14:15 | 37.72433 | 24.29737 | 10808 ft | 337 kts | 349° |
| 2026-05-07 14:16 | 37.74748 | 24.29286 | 10207 ft | 336 kts | 350° |
| 2026-05-07 14:16 | 37.77025 | 24.28840 | 9988 ft | 323 kts | 350° |
| 2026-05-07 14:16 | 37.79190 | 24.28417 | 9831 ft | 307 kts | 350° |
| 2026-05-07 14:16 | 37.81255 | 24.28014 | 9673 ft | 293 kts | 350° |
| 2026-05-07 14:17 | 37.83253 | 24.27623 | 9499 ft | 289 kts | 349° |
| 2026-05-07 14:17 | 37.85227 | 24.27234 | 9350 ft | 287 kts | 349° |
| 2026-05-07 14:17 | 37.87198 | 24.26846 | 9222 ft | 286 kts | 350° |
| 2026-05-07 14:17 | 37.89150 | 24.26464 | 8877 ft | 288 kts | 349° |
| 2026-05-07 14:18 | 37.91129 | 24.26078 | 8349 ft | 289 kts | 349° |
| 2026-05-07 14:18 | 37.93115 | 24.25762 | 7850 ft | 287 kts | 352° |
| 2026-05-07 14:18 | 37.95097 | 24.25534 | 7255 ft | 283 kts | 353° |
| 2026-05-07 14:18 | 37.97023 | 24.25348 | 6891 ft | 271 kts | 354° |
| 2026-05-07 14:19 | 37.98850 | 24.25176 | 6652 ft | 256 kts | 352° |
| 2026-05-07 14:19 | 38.00532 | 24.24657 | 6478 ft | 246 kts | 335° |
| 2026-05-07 14:19 | 38.02104 | 24.23802 | 6292 ft | 246 kts | 335° |
| 2026-05-07 14:19 | 38.03675 | 24.22938 | 5945 ft | 246 kts | 335° |
| 2026-05-07 14:20 | 38.05244 | 24.22071 | 5598 ft | 245 kts | 333° |
| 2026-05-07 14:20 | 38.06678 | 24.20941 | 5211 ft | 242 kts | 317° |
| 2026-05-07 14:20 | 38.07974 | 24.19565 | 4821 ft | 244 kts | 317° |
| 2026-05-07 14:20 | 38.09168 | 24.18042 | 4415 ft | 244 kts | 301° |
| 2026-05-07 14:21 | 38.09841 | 24.16137 | 4060 ft | 236 kts | 281° |
| 2026-05-07 14:21 | 38.10018 | 24.14109 | 3772 ft | 226 kts | 271° |
| 2026-05-07 14:21 | 38.09977 | 24.12175 | 3519 ft | 214 kts | 253° |
| 2026-05-07 14:21 | 38.09306 | 24.10577 | 3283 ft | 200 kts | 226° |
| 2026-05-07 14:22 | 38.08264 | 24.09506 | 3071 ft | 186 kts | 216° |
| 2026-05-07 14:22 | 38.07278 | 24.08563 | 2989 ft | 169 kts | 217° |
| 2026-05-07 14:22 | 38.06389 | 24.07712 | 2949 ft | 154 kts | 216° |
| 2026-05-07 14:22 | 38.05549 | 24.06908 | 2811 ft | 149 kts | 216° |
| 2026-05-07 14:23 | 38.04716 | 24.06113 | 2657 ft | 149 kts | 216° |
| 2026-05-07 14:23 | 38.03892 | 24.05326 | 2464 ft | 148 kts | 216° |
| 2026-05-07 14:23 | 38.03071 | 24.04542 | 2289 ft | 147 kts | 216° |
| 2026-05-07 14:23 | 38.02262 | 24.03769 | 2079 ft | 144 kts | 215° |
| 2026-05-07 14:24 | 38.01462 | 24.03005 | 1920 ft | 143 kts | 214° |
| 2026-05-07 14:24 | 38.00673 | 24.02253 | 1713 ft | 141 kts | 213° |
| 2026-05-07 14:24 | 37.99874 | 24.01511 | 1505 ft | 148 kts | 213° |
| 2026-05-07 14:24 | 37.99021 | 24.00721 | 1330 ft | 150 kts | 214° |
| 2026-05-07 14:25 | 37.98207 | 23.99928 | 1088 ft | 144 kts | 217° |
| 2026-05-07 14:25 | 37.97414 | 23.99159 | 880 ft | 141 kts | 217° |
| 2026-05-07 14:25 | 37.96639 | 23.98405 | 729 ft | 142 kts | 217° |
| 2026-05-07 14:25 | 37.95883 | 23.97630 | 536 ft | 140 kts | 215° |
| 2026-05-07 14:26 | 37.95093 | 23.96925 | 313 ft | 138 kts | 215° |
| 2026-05-07 14:26 | 37.94369 | 23.96260 | 272 ft | 117 kts | 221° |
| 2026-05-07 14:26 | 37.93894 | 23.95790 | 276 ft | 58 kts | 217° |
| 2026-05-07 14:26 | 37.93700 | 23.95606 | 282 ft | 25 kts | 216° |
| 2026-05-07 14:27 | 37.93520 | 23.95393 | 281 ft | 19 kts | 246° |
| 2026-05-07 14:27 | 37.93468 | 23.95257 | 283 ft | 16 kts | 247° |
| 2026-05-07 14:27 | 37.93458 | 23.95225 | 284 ft | 0 kts | 247° |
| 2026-05-07 14:28 | 37.93457 | 23.95221 | 283 ft | 1 kts | 258° |
| 2026-05-07 14:29 | 37.93458 | 23.95209 | 283 ft | 4 kts | 271° |
| 2026-05-07 14:29 | 37.93466 | 23.95177 | 283 ft | 4 kts | 294° |
| 2026-05-07 14:29 | 37.93485 | 23.95160 | 283 ft | 4 kts | 340° |
| 2026-05-07 14:29 | 37.93526 | 23.95165 | 283 ft | 6 kts | 27° |
| 2026-05-07 14:30 | 37.93540 | 23.95176 | 285 ft | 0 kts | 32° |
| 2026-05-07 14:30 | 37.93544 | 23.95180 | 282 ft | 1 kts | 33° |
| 2026-05-07 14:30 | 37.93555 | 23.95189 | 282 ft | 3 kts | 34° |
| 2026-05-07 14:30 | 37.93573 | 23.95206 | 282 ft | 4 kts | 36° |
| 2026-05-07 14:31 | 37.93603 | 23.95233 | 282 ft | 6 kts | 36° |
| 2026-05-07 14:31 | 37.93621 | 23.95246 | 282 ft | 3 kts | 17° |
| 2026-05-07 14:31 | 37.93643 | 23.95231 | 284 ft | 5 kts | 316° |
| 2026-05-07 14:31 | 37.93674 | 23.95188 | 282 ft | 8 kts | 306° |
| 2026-05-07 14:32 | 37.93705 | 23.95125 | 282 ft | 9 kts | 287° |
| 2026-05-07 14:32 | 37.93711 | 23.95051 | 282 ft | 9 kts | 295° |
| 2026-05-07 14:32 | 37.93727 | 23.95016 | 282 ft | 4 kts | 303° |
| 2026-05-07 14:32 | 37.93740 | 23.94994 | 284 ft | 3 kts | 308° |
| 2026-05-07 14:33 | 37.93745 | 23.94986 | 282 ft | 1 kts | 309° |
| 2026-05-07 14:33 | 37.93746 | 23.94985 | 282 ft | 0 kts | 309° |